sensor_id;sensor_type;location;lat;lon;timestamp;pressure;altitude;pressure_sealevel;temperature;humidity
9249;BME280;4660;41.768;26.198;2023-02-01T00:01:59;100974.69;;;3.21;100.00
9249;BME280;4660;41.768;26.198;2023-02-01T00:04:25;100996.22;;;3.32;100.00
9249;BME280;4660;41.768;26.198;2023-02-01T00:06:51;100991.16;;;3.27;100.00
9249;BME280;4660;41.768;26.198;2023-02-01T00:09:16;100998.47;;;3.24;100.00
9249;BME280;4660;41.768;26.198;2023-02-01T00:11:42;100989.72;;;3.06;100.00
9249;BME280;4660;41.768;26.198;2023-02-01T00:14:07;100983.72;;;3.02;100.00
9249;BME280;4660;41.768;26.198;2023-02-01T00:16:33;100990.06;;;2.84;100.00
9249;BME280;4660;41.768;26.198;2023-02-01T00:19:10;100989.06;;;2.87;100.00
9249;BME280;4660;41.768;26.198;2023-02-01T00:21:36;100977.06;;;2.95;100.00
9249;BME280;4660;41.768;26.198;2023-02-01T00:24:03;100979.19;;;3.04;100.00
9249;BME280;4660;41.768;26.198;2023-02-01T00:26:35;100986.81;;;2.95;100.00
9249;BME280;4660;41.768;26.198;2023-02-01T00:29:02;100984.59;;;2.87;100.00
9249;BME280;4660;41.768;26.198;2023-02-01T00:31:28;100968.81;;;3.00;100.00
9249;BME280;4660;41.768;26.198;2023-02-01T00:33:54;100971.91;;;3.08;100.00
9249;BME280;4660;41.768;26.198;2023-02-01T00:36:20;100975.84;;;3.17;100.00
9249;BME280;4660;41.768;26.198;2023-02-01T00:38:45;100975.16;;;2.97;100.00
9249;BME280;4660;41.768;26.198;2023-02-01T00:41:17;100975.06;;;3.15;100.00
9249;BME280;4660;41.768;26.198;2023-02-01T00:43:43;100982.38;;;2.95;100.00
9249;BME280;4660;41.768;26.198;2023-02-01T00:46:10;100971.63;;;2.97;100.00
9249;BME280;4660;41.768;26.198;2023-02-01T00:48:36;100961.13;;;2.80;100.00
9249;BME280;4660;41.768;26.198;2023-02-01T00:51:07;100955.28;;;2.89;100.00
9249;BME280;4660;41.768;26.198;2023-02-01T00:53:34;100981.66;;;2.92;100.00
9249;BME280;4660;41.768;26.198;2023-02-01T00:56:00;100979.63;;;2.97;100.00
9249;BME280;4660;41.768;26.198;2023-02-01T00:58:26;100985.69;;;2.83;100.00
9249;BME280;4660;41.768;26.198;2023-02-01T01:03:29;100980.47;;;2.66;100.00
9249;BME280;4660;41.768;26.198;2023-02-01T01:05:59;100962.53;;;2.54;100.00
9249;BME280;4660;41.768;26.198;2023-02-01T01:08:25;100983.03;;;2.67;100.00
9249;BME280;4660;41.768;26.198;2023-02-01T01:10:51;100987.75;;;2.62;100.00
9249;BME280;4660;41.768;26.198;2023-02-01T01:13:16;100974.25;;;2.49;100.00
9249;BME280;4660;41.768;26.198;2023-02-01T01:15:42;100961.94;;;2.48;100.00
9249;BME280;4660;41.768;26.198;2023-02-01T01:18:08;100966.03;;;2.38;100.00
9249;BME280;4660;41.768;26.198;2023-02-01T01:20:36;100985.91;;;2.47;100.00
9249;BME280;4660;41.768;26.198;2023-02-01T01:23:02;100962.34;;;2.41;100.00
9249;BME280;4660;41.768;26.198;2023-02-01T01:25:28;100971.13;;;2.59;100.00
9249;BME280;4660;41.768;26.198;2023-02-01T01:27:53;100978.75;;;2.65;100.00
9249;BME280;4660;41.768;26.198;2023-02-01T01:30:19;100969.47;;;2.56;100.00
9249;BME280;4660;41.768;26.198;2023-02-01T01:32:45;100980.03;;;2.58;100.00
9249;BME280;4660;41.768;26.198;2023-02-01T01:35:11;100982.69;;;2.58;100.00
9249;BME280;4660;41.768;26.198;2023-02-01T01:37:36;100981.47;;;2.47;100.00
9249;BME280;4660;41.768;26.198;2023-02-01T01:40:06;100995.00;;;2.43;100.00
9249;BME280;4660;41.768;26.198;2023-02-01T01:42:42;100983.69;;;2.39;100.00
9249;BME280;4660;41.768;26.198;2023-02-01T01:45:32;100969.22;;;2.45;100.00
9249;BME280;4660;41.768;26.198;2023-02-01T01:48:00;100961.94;;;2.48;100.00
9249;BME280;4660;41.768;26.198;2023-02-01T01:50:33;100979.25;;;2.56;100.00
9249;BME280;4660;41.768;26.198;2023-02-01T01:53:03;100985.78;;;2.66;100.00
9249;BME280;4660;41.768;26.198;2023-02-01T01:55:32;100984.41;;;2.59;100.00
9249;BME280;4660;41.768;26.198;2023-02-01T01:58:06;100985.25;;;2.59;100.00
9249;BME280;4660;41.768;26.198;2023-02-01T02:00:33;100988.00;;;2.58;100.00
9249;BME280;4660;41.768;26.198;2023-02-01T02:03:07;100994.19;;;2.58;100.00
9249;BME280;4660;41.768;26.198;2023-02-01T02:05:35;100988.16;;;2.55;100.00
9249;BME280;4660;41.768;26.198;2023-02-01T02:08:01;100991.56;;;2.57;100.00
9249;BME280;4660;41.768;26.198;2023-02-01T02:10:27;101000.00;;;2.65;100.00
9249;BME280;4660;41.768;26.198;2023-02-01T02:13:14;100982.00;;;2.54;100.00
9249;BME280;4660;41.768;26.198;2023-02-01T02:15:45;100962.97;;;2.46;100.00
9249;BME280;4660;41.768;26.198;2023-02-01T02:35:52;100999.06;;;2.50;100.00
9249;BME280;4660;41.768;26.198;2023-02-01T02:38:30;100986.97;;;2.60;100.00
9249;BME280;4660;41.768;26.198;2023-02-01T02:46:32;100993.88;;;2.47;100.00
9249;BME280;4660;41.768;26.198;2023-02-01T02:49:25;100982.66;;;2.42;100.00
9249;BME280;4660;41.768;26.198;2023-02-01T02:52:16;100985.56;;;2.37;100.00
9249;BME280;4660;41.768;26.198;2023-02-01T02:55:03;100993.16;;;2.28;100.00
9249;BME280;4660;41.768;26.198;2023-02-01T02:57:38;100978.13;;;2.11;100.00
9249;BME280;4660;41.768;26.198;2023-02-01T03:00:27;100978.66;;;2.17;100.00
9249;BME280;4660;41.768;26.198;2023-02-01T03:03:12;100968.91;;;2.18;100.00
9249;BME280;4660;41.768;26.198;2023-02-01T03:05:56;101000.03;;;2.32;100.00
9249;BME280;4660;41.768;26.198;2023-02-01T03:13:45;100985.72;;;2.34;100.00
9249;BME280;4660;41.768;26.198;2023-02-01T03:16:24;100983.31;;;2.30;100.00
9249;BME280;4660;41.768;26.198;2023-02-01T03:23:57;101000.84;;;1.99;100.00
9249;BME280;4660;41.768;26.198;2023-02-01T03:26:26;101002.50;;;2.02;100.00
9249;BME280;4660;41.768;26.198;2023-02-01T03:29:07;100988.06;;;1.90;100.00
9249;BME280;4660;41.768;26.198;2023-02-01T03:31:33;100997.06;;;1.87;100.00
9249;BME280;4660;41.768;26.198;2023-02-01T03:33:59;100980.34;;;1.85;100.00
9249;BME280;4660;41.768;26.198;2023-02-01T03:39:07;101017.25;;;2.40;100.00
9249;BME280;4660;41.768;26.198;2023-02-01T03:44:19;101023.19;;;2.28;100.00
9249;BME280;4660;41.768;26.198;2023-02-01T03:49:33;100994.69;;;1.99;100.00
9249;BME280;4660;41.768;26.198;2023-02-01T03:52:00;101029.00;;;2.19;100.00
9249;BME280;4660;41.768;26.198;2023-02-01T03:54:27;101019.50;;;2.15;100.00
9249;BME280;4660;41.768;26.198;2023-02-01T03:56:56;101021.97;;;2.18;100.00
9249;BME280;4660;41.768;26.198;2023-02-01T03:59:24;101018.66;;;2.14;100.00
9249;BME280;4660;41.768;26.198;2023-02-01T04:01:50;101024.88;;;2.13;100.00
9249;BME280;4660;41.768;26.198;2023-02-01T04:04:16;101031.97;;;2.13;100.00
9249;BME280;4660;41.768;26.198;2023-02-01T04:06:51;101039.47;;;2.22;100.00
9249;BME280;4660;41.768;26.198;2023-02-01T04:09:17;101042.41;;;2.33;100.00
9249;BME280;4660;41.768;26.198;2023-02-01T04:11:43;101040.16;;;2.26;100.00
9249;BME280;4660;41.768;26.198;2023-02-01T04:14:09;101027.13;;;2.21;100.00
9249;BME280;4660;41.768;26.198;2023-02-01T04:16:36;101041.72;;;2.30;100.00
9249;BME280;4660;41.768;26.198;2023-02-01T04:19:02;101044.63;;;2.25;100.00
9249;BME280;4660;41.768;26.198;2023-02-01T04:21:27;101056.66;;;2.15;100.00
9249;BME280;4660;41.768;26.198;2023-02-01T04:23:53;101063.06;;;2.11;100.00
9249;BME280;4660;41.768;26.198;2023-02-01T04:26:20;101065.06;;;2.06;100.00
9249;BME280;4660;41.768;26.198;2023-02-01T04:28:46;101057.59;;;1.97;100.00
9249;BME280;4660;41.768;26.198;2023-02-01T04:31:19;101052.75;;;2.22;100.00
9249;BME280;4660;41.768;26.198;2023-02-01T04:33:52;101069.44;;;2.07;100.00
9249;BME280;4660;41.768;26.198;2023-02-01T04:36:19;101049.94;;;1.90;100.00
9249;BME280;4660;41.768;26.198;2023-02-01T04:38:51;101050.41;;;1.81;100.00
9249;BME280;4660;41.768;26.198;2023-02-01T04:41:16;101045.03;;;1.83;100.00
9249;BME280;4660;41.768;26.198;2023-02-01T04:43:46;101059.28;;;2.32;100.00
9249;BME280;4660;41.768;26.198;2023-02-01T04:46:12;101045.88;;;2.18;100.00
9249;BME280;4660;41.768;26.198;2023-02-01T04:48:38;101050.88;;;2.07;100.00
9249;BME280;4660;41.768;26.198;2023-02-01T04:51:03;101065.75;;;2.27;100.00
9249;BME280;4660;41.768;26.198;2023-02-01T04:53:29;101060.22;;;2.31;100.00
9249;BME280;4660;41.768;26.198;2023-02-01T04:55:55;101066.16;;;2.36;100.00
9249;BME280;4660;41.768;26.198;2023-02-01T04:58:21;101075.16;;;2.49;100.00
9249;BME280;4660;41.768;26.198;2023-02-01T05:44:53;100981.22;;;0.79;100.00
9249;BME280;4660;41.768;26.198;2023-02-01T05:58:03;101053.47;;;1.37;100.00
9249;BME280;4660;41.768;26.198;2023-02-01T06:00:31;101065.81;;;1.56;100.00
9249;BME280;4660;41.768;26.198;2023-02-01T06:08:41;101140.91;;;1.92;100.00
9249;BME280;4660;41.768;26.198;2023-02-01T06:13:58;101115.50;;;1.88;100.00
9249;BME280;4660;41.768;26.198;2023-02-01T06:34:27;101145.69;;;2.72;100.00
9249;BME280;4660;41.768;26.198;2023-02-01T06:37:38;101131.72;;;2.69;100.00
9249;BME280;4660;41.768;26.198;2023-02-01T06:43:12;101057.03;;;2.25;100.00
9249;BME280;4660;41.768;26.198;2023-02-01T07:03:52;101164.88;;;2.95;100.00
9249;BME280;4660;41.768;26.198;2023-02-01T07:09:17;101033.22;;;2.23;100.00
9249;BME280;4660;41.768;26.198;2023-02-01T07:12:14;101134.72;;;2.79;100.00
9249;BME280;4660;41.768;26.198;2023-02-01T07:15:01;101062.66;;;2.36;100.00
9249;BME280;4660;41.768;26.198;2023-02-01T07:17:37;101085.66;;;2.53;100.00
9249;BME280;4660;41.768;26.198;2023-02-01T07:23:44;101170.19;;;2.95;100.00
9249;BME280;4660;41.768;26.198;2023-02-01T07:35:28;101151.44;;;3.14;100.00
9249;BME280;4660;41.768;26.198;2023-02-01T07:37:57;101158.59;;;3.29;100.00
9249;BME280;4660;41.768;26.198;2023-02-01T07:52:10;101200.00;;;4.28;100.00
9249;BME280;4660;41.768;26.198;2023-02-01T07:57:18;101090.41;;;3.59;100.00
9249;BME280;4660;41.768;26.198;2023-02-01T08:00:22;101224.41;;;4.36;100.00
9249;BME280;4660;41.768;26.198;2023-02-01T08:03:51;101204.47;;;4.43;100.00
9249;BME280;4660;41.768;26.198;2023-02-01T08:58:26;101154.94;;;5.96;100.00
9249;BME280;4660;41.768;26.198;2023-02-01T11:40:23;101072.88;;;8.78;94.57
9249;BME280;4660;41.768;26.198;2023-02-01T11:43:16;100976.88;;;8.26;96.74
9249;BME280;4660;41.768;26.198;2023-02-01T11:46:00;100933.47;;;8.21;93.85
9249;BME280;4660;41.768;26.198;2023-02-01T11:49:24;101068.34;;;9.24;90.73
9249;BME280;4660;41.768;26.198;2023-02-01T13:14:07;100975.97;;;9.26;87.97
9249;BME280;4660;41.768;26.198;2023-02-01T13:17:29;100837.47;;;8.60;88.05
9249;BME280;4660;41.768;26.198;2023-02-01T13:20:30;100901.25;;;8.99;88.69
9249;BME280;4660;41.768;26.198;2023-02-01T13:23:44;100940.81;;;9.29;91.46
9249;BME280;4660;41.768;26.198;2023-02-01T13:27:03;100926.81;;;9.47;87.24
9249;BME280;4660;41.768;26.198;2023-02-01T13:38:25;100955.47;;;9.99;86.13
9249;BME280;4660;41.768;26.198;2023-02-01T13:41:28;100947.94;;;10.14;84.05
9249;BME280;4660;41.768;26.198;2023-02-01T13:44:19;100927.22;;;10.05;83.69
9249;BME280;4660;41.768;26.198;2023-02-01T13:46:56;100876.19;;;9.84;82.58
9249;BME280;4660;41.768;26.198;2023-02-01T13:49:32;100826.47;;;9.48;83.15
9249;BME280;4660;41.768;26.198;2023-02-01T13:55:14;100900.38;;;9.63;85.28
9249;BME280;4660;41.768;26.198;2023-02-01T14:00:38;100975.88;;;10.02;88.79
9249;BME280;4660;41.768;26.198;2023-02-01T14:03:43;100844.41;;;9.26;87.49
9249;BME280;4660;41.768;26.198;2023-02-01T14:06:41;100932.22;;;9.68;85.20
9249;BME280;4660;41.768;26.198;2023-02-01T14:09:40;100902.78;;;9.45;86.37
9249;BME280;4660;41.768;26.198;2023-02-01T14:12:53;100974.09;;;9.91;87.34
9249;BME280;4660;41.768;26.198;2023-02-01T14:21:53;100972.06;;;9.83;84.70
9249;BME280;4660;41.768;26.198;2023-02-01T14:24:33;100890.19;;;9.25;87.56
9249;BME280;4660;41.768;26.198;2023-02-01T14:27:37;100893.03;;;9.12;88.13
9249;BME280;4660;41.768;26.198;2023-02-01T14:30:16;100939.91;;;9.40;87.55
9249;BME280;4660;41.768;26.198;2023-02-01T14:32:55;100869.09;;;8.88;87.29
9249;BME280;4660;41.768;26.198;2023-02-01T14:35:26;100936.19;;;9.20;88.23
9249;BME280;4660;41.768;26.198;2023-02-01T14:38:21;100978.22;;;9.42;89.64
9249;BME280;4660;41.768;26.198;2023-02-01T14:41:32;100867.81;;;8.60;89.84
9249;BME280;4660;41.768;26.198;2023-02-01T14:57:21;100971.22;;;9.19;93.68
9249;BME280;4660;41.768;26.198;2023-02-01T15:05:43;100941.28;;;8.91;92.19
9249;BME280;4660;41.768;26.198;2023-02-01T15:15:14;100886.09;;;8.33;91.75
9249;BME280;4660;41.768;26.198;2023-02-01T15:17:57;100924.13;;;8.49;93.26
9249;BME280;4660;41.768;26.198;2023-02-01T15:21:00;100869.19;;;8.10;93.88
9249;BME280;4660;41.768;26.198;2023-02-01T15:23:41;100967.91;;;8.61;94.64
9249;BME280;4660;41.768;26.198;2023-02-01T15:26:35;100946.69;;;8.46;95.06
9249;BME280;4660;41.768;26.198;2023-02-01T15:29:26;100885.88;;;8.36;95.87
9249;BME280;4660;41.768;26.198;2023-02-01T15:31:59;100990.06;;;8.96;93.82
9249;BME280;4660;41.768;26.198;2023-02-01T15:34:48;100972.53;;;8.59;92.62
9249;BME280;4660;41.768;26.198;2023-02-01T15:37:31;100928.41;;;8.29;92.15
9249;BME280;4660;41.768;26.198;2023-02-01T15:40:26;100917.41;;;8.10;92.21
9249;BME280;4660;41.768;26.198;2023-02-01T15:42:53;100994.00;;;8.59;92.84
9249;BME280;4660;41.768;26.198;2023-02-01T15:54:53;100901.09;;;8.13;93.95
9249;BME280;4660;41.768;26.198;2023-02-01T15:57:43;100897.78;;;7.98;95.30
9249;BME280;4660;41.768;26.198;2023-02-01T16:18:21;100933.34;;;8.00;94.03
9249;BME280;4660;41.768;26.198;2023-02-01T16:27:51;101029.25;;;8.19;99.53
9249;BME280;4660;41.768;26.198;2023-02-01T16:35:32;101023.31;;;7.91;100.00
9249;BME280;4660;41.768;26.198;2023-02-01T16:38:38;100974.44;;;7.41;100.00
9249;BME280;4660;41.768;26.198;2023-02-01T16:41:13;100938.56;;;7.20;100.00
9249;BME280;4660;41.768;26.198;2023-02-01T16:43:43;100955.38;;;7.22;100.00
9249;BME280;4660;41.768;26.198;2023-02-01T16:46:22;100936.75;;;7.21;100.00
9249;BME280;4660;41.768;26.198;2023-02-01T16:49:01;101029.56;;;7.68;98.96
9249;BME280;4660;41.768;26.198;2023-02-01T16:51:40;100953.75;;;7.20;99.10
9249;BME280;4660;41.768;26.198;2023-02-01T16:54:34;100917.59;;;7.14;96.38
9249;BME280;4660;41.768;26.198;2023-02-01T16:57:57;101024.53;;;7.87;96.40
9249;BME280;4660;41.768;26.198;2023-02-01T17:01:15;100977.56;;;7.59;93.73
9249;BME280;4660;41.768;26.198;2023-02-01T17:03:56;101033.06;;;7.92;93.75
9249;BME280;4660;41.768;26.198;2023-02-01T17:10:47;101011.50;;;7.59;93.34
9249;BME280;4660;41.768;26.198;2023-02-01T17:16:58;101018.69;;;7.58;94.43
9249;BME280;4660;41.768;26.198;2023-02-01T17:20:17;100945.47;;;7.11;94.36
9249;BME280;4660;41.768;26.198;2023-02-01T17:22:55;100975.81;;;7.23;94.11
9249;BME280;4660;41.768;26.198;2023-02-01T17:25:34;100888.84;;;6.94;94.49
9249;BME280;4660;41.768;26.198;2023-02-01T17:28:11;100972.81;;;7.63;91.98
9249;BME280;4660;41.768;26.198;2023-02-01T17:30:40;101029.31;;;7.71;92.78
9249;BME280;4660;41.768;26.198;2023-02-01T17:33:22;100967.25;;;7.18;93.94
9249;BME280;4660;41.768;26.198;2023-02-01T17:36:29;100910.56;;;6.65;95.66
9249;BME280;4660;41.768;26.198;2023-02-01T17:39:16;100976.41;;;7.03;95.99
9249;BME280;4660;41.768;26.198;2023-02-01T17:42:28;101029.34;;;7.23;96.87
9249;BME280;4660;41.768;26.198;2023-02-01T17:46:05;100949.13;;;6.74;96.86
9249;BME280;4660;41.768;26.198;2023-02-01T17:48:22;100947.50;;;6.71;96.92
9249;BME280;4660;41.768;26.198;2023-02-01T17:50:59;101035.03;;;7.06;97.68
9249;BME280;4660;41.768;26.198;2023-02-01T17:53:30;100956.19;;;6.62;97.34
9249;BME280;4660;41.768;26.198;2023-02-01T17:56:18;100996.47;;;6.84;97.56
9249;BME280;4660;41.768;26.198;2023-02-01T17:59:25;100908.47;;;6.32;97.29
9249;BME280;4660;41.768;26.198;2023-02-01T18:06:09;101028.13;;;6.78;98.06
9249;BME280;4660;41.768;26.198;2023-02-01T18:08:41;100913.41;;;6.13;97.86
9249;BME280;4660;41.768;26.198;2023-02-01T18:11:31;100886.69;;;5.87;99.26
9249;BME280;4660;41.768;26.198;2023-02-01T18:14:01;101035.75;;;6.71;100.00
9249;BME280;4660;41.768;26.198;2023-02-01T18:16:28;101027.53;;;6.49;100.00
9249;BME280;4660;41.768;26.198;2023-02-01T18:18:55;101009.78;;;6.48;100.00
9249;BME280;4660;41.768;26.198;2023-02-01T18:21:49;100926.19;;;5.82;100.00
9249;BME280;4660;41.768;26.198;2023-02-01T18:27:24;101027.19;;;6.28;100.00
9249;BME280;4660;41.768;26.198;2023-02-01T18:30:03;100934.38;;;5.53;100.00
9249;BME280;4660;41.768;26.198;2023-02-01T18:32:41;100923.69;;;5.14;100.00
9249;BME280;4660;41.768;26.198;2023-02-01T18:35:26;100908.63;;;5.00;100.00
9249;BME280;4660;41.768;26.198;2023-02-01T18:37:54;100954.72;;;5.29;100.00
9249;BME280;4660;41.768;26.198;2023-02-01T18:40:32;101049.00;;;5.28;100.00
9249;BME280;4660;41.768;26.198;2023-02-01T18:43:14;100995.63;;;5.15;100.00
9249;BME280;4660;41.768;26.198;2023-02-01T18:45:47;100976.59;;;4.66;100.00
9249;BME280;4660;41.768;26.198;2023-02-01T18:48:21;100933.28;;;4.48;100.00
9249;BME280;4660;41.768;26.198;2023-02-01T18:51:21;101062.44;;;5.27;100.00
9249;BME280;4660;41.768;26.198;2023-02-01T18:54:03;100979.25;;;4.37;100.00
9249;BME280;4660;41.768;26.198;2023-02-01T18:56:44;100998.38;;;4.44;100.00
9249;BME280;4660;41.768;26.198;2023-02-01T18:59:14;100980.38;;;4.05;100.00
9249;BME280;4660;41.768;26.198;2023-02-01T19:01:53;101054.94;;;4.19;100.00
9249;BME280;4660;41.768;26.198;2023-02-01T19:04:28;101007.44;;;3.97;100.00
9249;BME280;4660;41.768;26.198;2023-02-01T19:07:49;101062.19;;;3.87;100.00
9249;BME280;4660;41.768;26.198;2023-02-01T19:10:43;100971.06;;;3.08;100.00
9249;BME280;4660;41.768;26.198;2023-02-01T19:13:38;100966.72;;;3.21;100.00
9249;BME280;4660;41.768;26.198;2023-02-01T19:16:10;100921.16;;;2.81;100.00
9249;BME280;4660;41.768;26.198;2023-02-01T19:18:50;100991.25;;;3.26;100.00
9249;BME280;4660;41.768;26.198;2023-02-01T19:21:43;101028.59;;;3.54;100.00
9249;BME280;4660;41.768;26.198;2023-02-01T19:24:24;101030.31;;;3.55;100.00
9249;BME280;4660;41.768;26.198;2023-02-01T19:27:01;100929.84;;;3.30;100.00
9249;BME280;4660;41.768;26.198;2023-02-01T19:30:22;100933.75;;;3.39;100.00
9249;BME280;4660;41.768;26.198;2023-02-01T19:32:54;100956.25;;;3.34;100.00
9249;BME280;4660;41.768;26.198;2023-02-01T19:35:48;100999.44;;;3.53;100.00
9249;BME280;4660;41.768;26.198;2023-02-01T19:38:16;100928.53;;;3.08;100.00
9249;BME280;4660;41.768;26.198;2023-02-01T19:40:47;101063.72;;;3.91;100.00
9249;BME280;4660;41.768;26.198;2023-02-01T19:43:20;100909.22;;;3.04;100.00
9249;BME280;4660;41.768;26.198;2023-02-01T19:45:55;101037.84;;;3.63;100.00
9249;BME280;4660;41.768;26.198;2023-02-01T19:48:42;101062.34;;;3.84;100.00
9249;BME280;4660;41.768;26.198;2023-02-01T19:51:20;101067.88;;;3.81;100.00
9249;BME280;4660;41.768;26.198;2023-02-01T19:53:54;100972.03;;;3.21;100.00
9249;BME280;4660;41.768;26.198;2023-02-01T19:56:22;100903.09;;;3.18;100.00
9249;BME280;4660;41.768;26.198;2023-02-01T19:59:17;100956.88;;;3.53;100.00
9249;BME280;4660;41.768;26.198;2023-02-01T20:01:55;100978.88;;;3.71;100.00
9249;BME280;4660;41.768;26.198;2023-02-01T20:04:32;101011.59;;;3.57;100.00
9249;BME280;4660;41.768;26.198;2023-02-01T20:07:02;101004.50;;;3.57;100.00
9249;BME280;4660;41.768;26.198;2023-02-01T20:10:02;100938.56;;;3.33;100.00
9249;BME280;4660;41.768;26.198;2023-02-01T20:13:01;100901.34;;;3.02;100.00
9249;BME280;4660;41.768;26.198;2023-02-01T20:15:58;100929.38;;;2.92;100.00
9249;BME280;4660;41.768;26.198;2023-02-01T20:18:34;101025.50;;;3.16;100.00
9249;BME280;4660;41.768;26.198;2023-02-01T20:21:16;101021.41;;;3.41;100.00
9249;BME280;4660;41.768;26.198;2023-02-01T20:23:47;100937.72;;;2.86;100.00
9249;BME280;4660;41.768;26.198;2023-02-01T20:26:20;101015.25;;;3.40;100.00
9249;BME280;4660;41.768;26.198;2023-02-01T20:28:51;100983.13;;;3.29;100.00
9249;BME280;4660;41.768;26.198;2023-02-01T20:31:39;101026.94;;;3.06;100.00
9249;BME280;4660;41.768;26.198;2023-02-01T20:34:44;101068.34;;;3.10;100.00
9249;BME280;4660;41.768;26.198;2023-02-01T20:37:16;101064.66;;;3.13;100.00
9249;BME280;4660;41.768;26.198;2023-02-01T20:39:45;101068.13;;;3.15;100.00
9249;BME280;4660;41.768;26.198;2023-02-01T20:42:42;101054.00;;;2.81;100.00
9249;BME280;4660;41.768;26.198;2023-02-01T20:45:22;101038.94;;;2.48;100.00
9249;BME280;4660;41.768;26.198;2023-02-01T20:48:12;100977.63;;;2.20;100.00
9249;BME280;4660;41.768;26.198;2023-02-01T20:50:41;101059.22;;;2.67;100.00
9249;BME280;4660;41.768;26.198;2023-02-01T20:53:21;101050.91;;;2.40;100.00
9249;BME280;4660;41.768;26.198;2023-02-01T20:55:55;100982.84;;;1.88;100.00
9249;BME280;4660;41.768;26.198;2023-02-01T21:01:42;101073.00;;;2.40;100.00
9249;BME280;4660;41.768;26.198;2023-02-01T21:04:53;101071.59;;;2.51;100.00
9249;BME280;4660;41.768;26.198;2023-02-01T21:07:27;100937.28;;;1.80;100.00
9249;BME280;4660;41.768;26.198;2023-02-01T21:10:14;100962.44;;;2.06;100.00
9249;BME280;4660;41.768;26.198;2023-02-01T21:12:47;100982.63;;;2.26;100.00
9249;BME280;4660;41.768;26.198;2023-02-01T21:16:05;101005.34;;;2.32;100.00
9249;BME280;4660;41.768;26.198;2023-02-01T21:18:37;101021.63;;;2.41;100.00
9249;BME280;4660;41.768;26.198;2023-02-01T21:21:45;101028.06;;;2.37;100.00
9249;BME280;4660;41.768;26.198;2023-02-01T21:24:34;101070.47;;;2.72;100.00
9249;BME280;4660;41.768;26.198;2023-02-01T21:27:34;101081.28;;;2.52;100.00
9249;BME280;4660;41.768;26.198;2023-02-01T21:30:22;101014.19;;;1.98;100.00
9249;BME280;4660;41.768;26.198;2023-02-01T21:33:04;101098.00;;;2.19;100.00
9249;BME280;4660;41.768;26.198;2023-02-01T21:36:05;100942.69;;;1.79;100.00
9249;BME280;4660;41.768;26.198;2023-02-01T21:38:52;100953.03;;;1.83;100.00
9249;BME280;4660;41.768;26.198;2023-02-01T21:41:33;101091.81;;;2.53;100.00
9249;BME280;4660;41.768;26.198;2023-02-01T21:44:41;100982.97;;;2.03;100.00
9249;BME280;4660;41.768;26.198;2023-02-01T21:47:17;101057.66;;;2.30;100.00
9249;BME280;4660;41.768;26.198;2023-02-01T21:49:49;101056.31;;;2.21;100.00
9249;BME280;4660;41.768;26.198;2023-02-01T21:52:25;101027.63;;;1.77;100.00
9249;BME280;4660;41.768;26.198;2023-02-01T21:54:58;100996.88;;;1.90;100.00
9249;BME280;4660;41.768;26.198;2023-02-01T21:57:34;101089.78;;;2.58;100.00
9249;BME280;4660;41.768;26.198;2023-02-01T22:00:05;101017.56;;;2.01;100.00
9249;BME280;4660;41.768;26.198;2023-02-01T22:02:35;101073.47;;;2.48;100.00
9249;BME280;4660;41.768;26.198;2023-02-01T22:05:02;101112.78;;;2.75;100.00
9249;BME280;4660;41.768;26.198;2023-02-01T22:07:29;101099.56;;;2.58;100.00
9249;BME280;4660;41.768;26.198;2023-02-01T22:09:55;101083.50;;;2.26;100.00
9249;BME280;4660;41.768;26.198;2023-02-01T22:12:20;101110.44;;;2.01;100.00
9249;BME280;4660;41.768;26.198;2023-02-01T22:14:47;101091.75;;;1.85;100.00
9249;BME280;4660;41.768;26.198;2023-02-01T22:17:14;101097.69;;;1.73;100.00
9249;BME280;4660;41.768;26.198;2023-02-01T22:19:39;101103.31;;;1.84;100.00
9249;BME280;4660;41.768;26.198;2023-02-01T22:22:06;101107.84;;;2.00;100.00
9249;BME280;4660;41.768;26.198;2023-02-01T22:24:32;101095.50;;;1.99;100.00
9249;BME280;4660;41.768;26.198;2023-02-01T22:27:00;101113.47;;;2.28;100.00
9249;BME280;4660;41.768;26.198;2023-02-01T22:29:26;101107.03;;;2.49;100.00
9249;BME280;4660;41.768;26.198;2023-02-01T22:31:52;101101.91;;;2.46;100.00
9249;BME280;4660;41.768;26.198;2023-02-01T22:34:17;101094.88;;;2.45;100.00
9249;BME280;4660;41.768;26.198;2023-02-01T22:36:44;101108.00;;;2.31;100.00
9249;BME280;4660;41.768;26.198;2023-02-01T22:39:10;101096.06;;;2.40;100.00
9249;BME280;4660;41.768;26.198;2023-02-01T22:41:36;101100.34;;;2.42;100.00
9249;BME280;4660;41.768;26.198;2023-02-01T22:44:01;101099.72;;;2.20;100.00
9249;BME280;4660;41.768;26.198;2023-02-01T22:46:28;101106.28;;;2.13;100.00
9249;BME280;4660;41.768;26.198;2023-02-01T22:48:55;101110.03;;;2.26;100.00
9249;BME280;4660;41.768;26.198;2023-02-01T22:51:27;101096.84;;;2.25;100.00
9249;BME280;4660;41.768;26.198;2023-02-01T22:53:53;101073.72;;;2.27;100.00
9249;BME280;4660;41.768;26.198;2023-02-01T22:56:31;101089.25;;;2.52;100.00
9249;BME280;4660;41.768;26.198;2023-02-01T22:58:58;101093.41;;;2.23;100.00
9249;BME280;4660;41.768;26.198;2023-02-01T23:01:26;101072.81;;;2.10;100.00
9249;BME280;4660;41.768;26.198;2023-02-01T23:04:00;101085.34;;;2.41;100.00
9249;BME280;4660;41.768;26.198;2023-02-01T23:06:26;101068.69;;;1.87;100.00
9249;BME280;4660;41.768;26.198;2023-02-01T23:08:57;101080.53;;;2.32;100.00
9249;BME280;4660;41.768;26.198;2023-02-01T23:11:23;101071.47;;;2.36;100.00
9249;BME280;4660;41.768;26.198;2023-02-01T23:13:49;101053.69;;;1.86;100.00
9249;BME280;4660;41.768;26.198;2023-02-01T23:16:15;101072.97;;;1.90;100.00
9249;BME280;4660;41.768;26.198;2023-02-01T23:18:41;101059.16;;;2.18;100.00
9249;BME280;4660;41.768;26.198;2023-02-01T23:21:09;101044.31;;;2.14;100.00
9249;BME280;4660;41.768;26.198;2023-02-01T23:23:35;101052.06;;;2.01;100.00
9249;BME280;4660;41.768;26.198;2023-02-01T23:26:02;101072.03;;;1.91;100.00
9249;BME280;4660;41.768;26.198;2023-02-01T23:28:28;101024.59;;;1.68;100.00
9249;BME280;4660;41.768;26.198;2023-02-01T23:30:53;101067.41;;;2.12;100.00
9249;BME280;4660;41.768;26.198;2023-02-01T23:33:23;101072.25;;;2.04;100.00